Time;durP1;ratioP1;P1;durP2;ratioP2;P2;SDS_P1;SDS_P2;PMS_P1;PMS_P2;Temp;Humidity;BMP_temperature;BMP_pressure;BME280_temperature;BME280_humidity;BME280_pressure;Samples;Min_cycle;Max_cycle;Signal;HPM_P1;HPM_P2
2023/08/01 00:00:52;;;;;;;6.43;2.72;;;;;;;;;;4990356;28;20363;-86
2023/08/01 00:03:18;;;;;;;4.80;2.40;;;;;;;;;;5001877;28;20034;-84
2023/08/01 00:05:45;;;;;;;6.30;2.80;;;;;;;;;;5005953;28;20054;-84
2023/08/01 00:08:14;;;;;;;4.72;2.83;;;;;;;;;;4984189;28;20045;-84
2023/08/01 00:10:41;;;;;;;6.32;3.47;;;;;;;;;;5002301;28;20145;-85
2023/08/01 00:13:07;;;;;;;4.95;3.08;;;;;;;;;;4990417;28;20057;-84
2023/08/01 00:15:33;;;;;;;6.55;3.25;;;;;;;;;;4998954;28;20041;-84
2023/08/01 00:17:59;;;;;;;5.72;3.05;;;;;;;;;;5008324;28;20046;-85
2023/08/01 00:20:25;;;;;;;5.18;3.70;;;;;;;;;;5012040;28;20117;-84
2023/08/01 00:22:51;;;;;;;7.15;3.35;;;;;;;;;;5005297;28;20045;-83
2023/08/01 00:25:18;;;;;;;5.38;3.58;;;;;;;;;;5005720;28;20038;-85
2023/08/01 00:27:44;;;;;;;5.90;3.45;;;;;;;;;;5010310;28;20113;-84
2023/08/01 00:30:10;;;;;;;6.80;4.10;;;;;;;;;;4994253;28;20041;-84
2023/08/01 00:32:36;;;;;;;6.25;3.58;;;;;;;;;;5011034;28;20041;-84
2023/08/01 00:35:03;;;;;;;6.57;4.28;;;;;;;;;;5012223;28;20100;-84
2023/08/01 00:37:29;;;;;;;4.25;3.72;;;;;;;;;;4993240;28;20041;-84
2023/08/01 00:39:55;;;;;;;7.78;4.30;;;;;;;;;;5011039;28;20188;-83
2023/08/01 00:42:21;;;;;;;5.68;3.70;;;;;;;;;;5002271;28;20455;-84
2023/08/01 00:44:48;;;;;;;6.50;4.00;;;;;;;;;;5002397;28;20049;-84
2023/08/01 00:47:14;;;;;;;9.65;4.00;;;;;;;;;;5011749;28;20618;-84
2023/08/01 00:49:40;;;;;;;5.80;3.63;;;;;;;;;;5011240;28;20080;-84
2023/08/01 00:52:07;;;;;;;6.03;3.72;;;;;;;;;;5009572;28;20092;-84
2023/08/01 00:54:36;;;;;;;8.05;3.90;;;;;;;;;;5010799;28;20132;-83
2023/08/01 00:57:05;;;;;;;6.07;3.80;;;;;;;;;;5008754;28;20056;-83
2023/08/01 00:59:31;;;;;;;7.75;3.78;;;;;;;;;;5010190;28;20053;-83
2023/08/01 01:01:58;;;;;;;6.18;4.45;;;;;;;;;;5009936;28;20076;-83
2023/08/01 01:04:25;;;;;;;6.47;4.30;;;;;;;;;;4993258;28;20499;-84
2023/08/01 01:06:58;;;;;;;8.05;3.90;;;;;;;;;;5008295;28;20133;-84
2023/08/01 01:09:24;;;;;;;6.75;3.92;;;;;;;;;;5010340;28;20117;-83
2023/08/01 01:11:50;;;;;;;7.40;4.18;;;;;;;;;;5008617;28;20444;-83
2023/08/01 01:14:16;;;;;;;8.07;4.03;;;;;;;;;;4992722;28;20053;-83
2023/08/01 01:16:42;;;;;;;8.05;4.30;;;;;;;;;;5010966;28;20076;-82
2023/08/01 01:19:09;;;;;;;6.43;3.67;;;;;;;;;;5001037;28;20078;-83
2023/08/01 01:21:36;;;;;;;5.63;3.28;;;;;;;;;;5009562;28;20029;-83
2023/08/01 01:24:04;;;;;;;4.88;3.05;;;;;;;;;;5011499;28;20046;-83
2023/08/01 01:26:30;;;;;;;5.03;3.08;;;;;;;;;;5009631;28;21698;-83
2023/08/01 01:28:56;;;;;;;6.18;3.17;;;;;;;;;;5011064;28;20298;-83
2023/08/01 01:31:22;;;;;;;7.60;3.53;;;;;;;;;;5010522;28;20056;-82
2023/08/01 01:33:48;;;;;;;6.50;3.92;;;;;;;;;;5011190;28;20049;-82
2023/08/01 01:36:14;;;;;;;6.68;3.28;;;;;;;;;;5010746;28;20041;-82
2023/08/01 01:38:40;;;;;;;5.40;3.22;;;;;;;;;;5010088;28;20037;-82
2023/08/01 01:41:06;;;;;;;7.15;3.65;;;;;;;;;;5010822;28;20398;-82
2023/08/01 01:43:32;;;;;;;8.57;3.20;;;;;;;;;;5005482;28;20046;-82
2023/08/01 01:45:58;;;;;;;10.90;3.47;;;;;;;;;;4991407;28;20192;-82
2023/08/01 01:48:24;;;;;;;7.30;3.53;;;;;;;;;;4992594;28;20403;-82
2023/08/01 01:50:50;;;;;;;6.57;4.40;;;;;;;;;;4975370;28;20041;-82
2023/08/01 01:53:16;;;;;;;8.13;3.47;;;;;;;;;;4987113;28;20046;-82
2023/08/01 01:55:43;;;;;;;8.52;3.85;;;;;;;;;;4991316;28;20081;-82
2023/08/01 01:58:09;;;;;;;6.72;3.83;;;;;;;;;;5007423;28;20038;-82
2023/08/01 02:00:36;;;;;;;4.90;3.58;;;;;;;;;;5009952;28;20479;-82
2023/08/01 02:03:02;;;;;;;5.28;3.90;;;;;;;;;;4992898;28;20054;-82
2023/08/01 02:05:29;;;;;;;7.10;3.45;;;;;;;;;;5009241;28;20109;-82
2023/08/01 02:07:55;;;;;;;6.60;3.88;;;;;;;;;;5009196;28;20048;-82
2023/08/01 02:10:21;;;;;;;8.75;3.70;;;;;;;;;;4991839;28;20108;-82
2023/08/01 02:12:47;;;;;;;7.95;3.83;;;;;;;;;;4995418;28;20251;-82
2023/08/01 02:15:13;;;;;;;5.25;3.30;;;;;;;;;;4997908;28;20069;-82
2023/08/01 02:17:40;;;;;;;8.23;3.00;;;;;;;;;;5009768;28;20037;-82
2023/08/01 02:20:06;;;;;;;6.45;3.10;;;;;;;;;;5009240;28;20041;-82
2023/08/01 02:22:33;;;;;;;5.80;3.10;;;;;;;;;;5008314;28;20041;-82
2023/08/01 02:24:59;;;;;;;5.55;2.72;;;;;;;;;;4991143;28;20038;-82
2023/08/01 02:27:25;;;;;;;5.55;3.00;;;;;;;;;;5001046;28;20490;-82
2023/08/01 02:29:51;;;;;;;3.28;2.50;;;;;;;;;;4993056;28;20046;-82
2023/08/01 02:32:17;;;;;;;4.85;2.38;;;;;;;;;;4988498;28;20476;-82
2023/08/01 02:34:43;;;;;;;5.82;2.45;;;;;;;;;;4993506;28;20112;-81
2023/08/01 02:37:09;;;;;;;4.80;2.63;;;;;;;;;;5003529;28;20042;-82
2023/08/01 02:39:36;;;;;;;6.25;3.60;;;;;;;;;;4987867;28;20409;-82
2023/08/01 02:42:02;;;;;;;4.25;2.90;;;;;;;;;;4987376;28;20309;-82
2023/08/01 02:44:28;;;;;;;5.53;3.25;;;;;;;;;;4973872;28;20038;-82
2023/08/01 02:46:54;;;;;;;6.80;3.72;;;;;;;;;;4989622;28;20042;-82
2023/08/01 02:49:20;;;;;;;7.15;3.70;;;;;;;;;;4988957;28;20034;-82
2023/08/01 02:51:46;;;;;;;6.90;3.72;;;;;;;;;;4979897;28;20110;-82
2023/08/01 02:54:12;;;;;;;9.68;4.32;;;;;;;;;;4972585;28;20081;-82
2023/08/01 02:56:40;;;;;;;7.82;4.05;;;;;;;;;;4972283;28;20078;-82
2023/08/01 02:59:08;;;;;;;7.50;4.47;;;;;;;;;;4986092;28;20062;-81
2023/08/01 03:01:35;;;;;;;7.38;3.63;;;;;;;;;;4989523;28;20054;-83
2023/08/01 03:04:02;;;;;;;5.35;3.15;;;;;;;;;;4988014;28;20105;-82
2023/08/01 03:06:27;;;;;;;6.65;3.85;;;;;;;;;;4987602;28;20047;-82
2023/08/01 03:08:53;;;;;;;5.13;3.40;;;;;;;;;;4976559;28;20034;-82
2023/08/01 03:11:19;;;;;;;5.88;3.05;;;;;;;;;;4976775;28;20093;-82
2023/08/01 03:13:45;;;;;;;5.30;3.47;;;;;;;;;;4988504;28;20050;-82
2023/08/01 03:16:11;;;;;;;6.93;2.97;;;;;;;;;;4989623;28;20117;-82
2023/08/01 03:18:37;;;;;;;5.85;3.42;;;;;;;;;;4988383;28;20050;-82
2023/08/01 03:21:03;;;;;;;4.82;3.13;;;;;;;;;;4987316;28;20381;-82
2023/08/01 03:23:30;;;;;;;6.45;3.10;;;;;;;;;;4974931;28;20077;-82
2023/08/01 03:25:56;;;;;;;6.80;2.78;;;;;;;;;;4971836;28;20042;-82
2023/08/01 03:28:22;;;;;;;6.88;3.20;;;;;;;;;;4984611;28;20044;-82
2023/08/01 03:30:50;;;;;;;8.65;3.97;;;;;;;;;;4988767;28;20483;-85
2023/08/01 03:33:16;;;;;;;6.78;3.05;;;;;;;;;;4988396;28;20095;-88
2023/08/01 03:35:42;;;;;;;6.88;3.42;;;;;;;;;;4987991;28;20045;-87
2023/08/01 03:38:08;;;;;;;5.50;2.97;;;;;;;;;;4988695;28;20031;-85
2023/08/01 03:40:34;;;;;;;7.53;3.35;;;;;;;;;;5004506;28;20069;-84
2023/08/01 03:43:00;;;;;;;5.47;2.95;;;;;;;;;;4971726;28;20054;-85
2023/08/01 03:45:26;;;;;;;3.90;2.58;;;;;;;;;;4989709;28;20046;-84
2023/08/01 03:47:52;;;;;;;6.30;2.25;;;;;;;;;;5004709;28;20056;-84
2023/08/01 03:50:18;;;;;;;5.25;2.40;;;;;;;;;;5005053;28;20033;-84
2023/08/01 03:52:45;;;;;;;4.20;1.67;;;;;;;;;;5004343;28;20056;-84
2023/08/01 03:55:11;;;;;;;3.50;1.63;;;;;;;;;;5002381;28;20034;-85
2023/08/01 03:57:38;;;;;;;3.67;2.00;;;;;;;;;;4993096;28;20046;-85
2023/08/01 04:00:05;;;;;;;4.43;1.63;;;;;;;;;;5012863;28;20109;-84
2023/08/01 04:02:31;;;;;;;2.03;1.20;;;;;;;;;;4993706;28;20042;-85
2023/08/01 04:04:57;;;;;;;1.33;1.00;;;;;;;;;;5007630;28;20048;-84
2023/08/01 04:07:24;;;;;;;0.80;0.70;;;;;;;;;;4991105;28;20039;-85
2023/08/01 04:09:50;;;;;;;2.53;1.17;;;;;;;;;;5005288;28;20077;-85
2023/08/01 04:12:16;;;;;;;3.40;1.00;;;;;;;;;;4996170;28;20072;-85
2023/08/01 04:14:42;;;;;;;2.15;0.70;;;;;;;;;;5010128;28;20053;-85
2023/08/01 04:17:09;;;;;;;0.95;0.80;;;;;;;;;;5007661;28;20054;-85
2023/08/01 04:19:35;;;;;;;1.58;0.70;;;;;;;;;;5013085;28;20041;-84
2023/08/01 04:22:01;;;;;;;1.17;0.90;;;;;;;;;;5012253;28;20115;-85
2023/08/01 04:24:27;;;;;;;1.48;0.80;;;;;;;;;;5002023;28;20046;-85
2023/08/01 04:26:53;;;;;;;2.45;1.02;;;;;;;;;;4993387;28;20154;-86
2023/08/01 04:29:20;;;;;;;1.23;0.73;;;;;;;;;;4990826;28;20046;-85
2023/08/01 04:31:45;;;;;;;2.08;0.93;;;;;;;;;;4994931;28;20044;-85
2023/08/01 04:34:11;;;;;;;2.60;0.70;;;;;;;;;;5009119;28;20042;-85
2023/08/01 04:36:37;;;;;;;1.38;0.70;;;;;;;;;;5008208;28;20045;-85
2023/08/01 04:39:03;;;;;;;2.55;1.25;;;;;;;;;;5009224;28;20486;-85
2023/08/01 04:41:30;;;;;;;1.52;0.80;;;;;;;;;;5010260;28;20046;-86
2023/08/01 04:43:55;;;;;;;2.30;0.98;;;;;;;;;;5000055;28;20782;-85
2023/08/01 04:46:21;;;;;;;1.83;0.82;;;;;;;;;;5010878;28;20045;-85
2023/08/01 04:48:47;;;;;;;0.95;0.65;;;;;;;;;;4995944;28;20082;-85
2023/08/01 04:51:14;;;;;;;1.50;0.75;;;;;;;;;;4993219;28;20047;-84
2023/08/01 04:53:40;;;;;;;2.33;0.90;;;;;;;;;;4992759;28;20049;-85
2023/08/01 04:56:06;;;;;;;1.80;1.17;;;;;;;;;;4993299;28;20050;-84
2023/08/01 04:58:31;;;;;;;2.15;0.60;;;;;;;;;;5009551;28;20096;-86
2023/08/01 05:00:57;;;;;;;1.27;0.90;;;;;;;;;;5006339;28;20128;-85
2023/08/01 05:03:23;;;;;;;1.02;0.63;;;;;;;;;;5003280;28;20129;-83
2023/08/01 05:05:49;;;;;;;1.30;0.60;;;;;;;;;;5004336;28;20129;-84
2023/08/01 05:08:15;;;;;;;1.05;0.50;;;;;;;;;;5008466;28;20117;-83
2023/08/01 05:10:41;;;;;;;1.13;0.80;;;;;;;;;;5006636;28;20044;-84
2023/08/01 05:13:07;;;;;;;0.80;0.55;;;;;;;;;;5012258;28;20046;-85
2023/08/01 05:15:33;;;;;;;1.30;0.82;;;;;;;;;;5008034;28;20562;-84
2023/08/01 05:17:59;;;;;;;1.27;1.00;;;;;;;;;;4997125;28;20045;-85
2023/08/01 05:20:30;;;;;;;2.15;1.23;;;;;;;;;;4999741;28;20125;-85
2023/08/01 05:22:56;;;;;;;1.80;0.88;;;;;;;;;;4986714;28;20100;-85
2023/08/01 05:25:22;;;;;;;1.15;0.90;;;;;;;;;;5000552;28;20031;-84
2023/08/01 05:27:48;;;;;;;1.92;0.88;;;;;;;;;;4999398;28;20384;-86
2023/08/01 05:30:14;;;;;;;1.67;0.90;;;;;;;;;;5004866;28;20214;-86
2023/08/01 05:32:40;;;;;;;2.17;1.20;;;;;;;;;;5003296;28;20038;-84
2023/08/01 05:35:07;;;;;;;2.60;1.10;;;;;;;;;;5009153;28;20046;-85
2023/08/01 05:37:33;;;;;;;1.25;1.15;;;;;;;;;;4999592;28;20076;-85
2023/08/01 05:39:59;;;;;;;1.80;1.23;;;;;;;;;;5000599;28;20085;-84
2023/08/01 05:42:25;;;;;;;2.33;1.10;;;;;;;;;;5000904;28;20990;-87
2023/08/01 05:44:51;;;;;;;3.65;1.40;;;;;;;;;;5003179;28;20038;-95
2023/08/01 05:47:17;;;;;;;3.22;1.00;;;;;;;;;;4978868;28;20069;-84
2023/08/01 05:49:43;;;;;;;3.13;1.30;;;;;;;;;;4982775;28;20486;-89
2023/08/01 05:52:09;;;;;;;2.78;1.08;;;;;;;;;;5009229;28;20038;-85
2023/08/01 05:54:35;;;;;;;2.83;1.17;;;;;;;;;;4983792;28;20053;-92
2023/08/01 05:57:01;;;;;;;3.33;1.40;;;;;;;;;;4976964;28;20074;-82
2023/08/01 05:59:27;;;;;;;3.60;1.70;;;;;;;;;;4988419;28;20128;-85
2023/08/01 06:01:53;;;;;;;2.45;1.40;;;;;;;;;;4999764;28;20038;-82
2023/08/01 06:04:19;;;;;;;3.63;1.15;;;;;;;;;;4977971;28;20092;-82
2023/08/01 06:06:45;;;;;;;1.95;1.33;;;;;;;;;;4991370;28;20261;-81
2023/08/01 06:09:11;;;;;;;3.38;1.40;;;;;;;;;;4998171;28;20100;-82
2023/08/01 06:11:37;;;;;;;2.40;1.02;;;;;;;;;;5008883;28;20045;-80
2023/08/01 06:14:03;;;;;;;1.85;1.27;;;;;;;;;;5008303;28;20045;-80
2023/08/01 06:16:29;;;;;;;1.15;0.82;;;;;;;;;;5000236;28;20085;-84
2023/08/01 06:18:56;;;;;;;2.63;1.10;;;;;;;;;;5010799;28;20057;-82
2023/08/01 06:21:22;;;;;;;2.08;1.10;;;;;;;;;;5006809;28;20438;-83
2023/08/01 06:23:48;;;;;;;1.67;1.10;;;;;;;;;;5010094;28;20045;-85
2023/08/01 14:40:07;;;;;;;2.33;0.65;;;;;;;;;;6253436;22;1955253;-91
2023/08/01 14:42:34;;;;;;;1.45;0.70;;;;;;;;;;6304457;22;20344;-93
2023/08/01 14:45:00;;;;;;;2.38;0.65;;;;;;;;;;6301416;22;20049;-85
2023/08/01 14:47:26;;;;;;;1.00;0.60;;;;;;;;;;6302469;22;20018;-83
2023/08/01 14:49:52;;;;;;;2.03;0.73;;;;;;;;;;6302427;22;20332;-85
2023/08/01 14:52:18;;;;;;;0.73;0.73;;;;;;;;;;6302528;22;20068;-85
2023/08/01 14:54:44;;;;;;;2.10;0.70;;;;;;;;;;6300659;22;20015;-85
2023/08/01 14:57:10;;;;;;;1.38;0.77;;;;;;;;;;6301102;22;20082;-86
2023/08/01 14:59:36;;;;;;;0.95;0.75;;;;;;;;;;6302851;22;20042;-88
2023/08/01 15:02:02;;;;;;;1.70;0.90;;;;;;;;;;6273580;22;20378;-87
2023/08/01 15:04:28;;;;;;;2.00;0.98;;;;;;;;;;6274046;22;20019;-89
2023/08/01 15:06:54;;;;;;;2.35;0.80;;;;;;;;;;6274222;22;20127;-87
2023/08/01 15:09:20;;;;;;;1.30;0.50;;;;;;;;;;6275238;22;20015;-87
2023/08/01 15:11:46;;;;;;;1.80;0.80;;;;;;;;;;6274065;22;20020;-87
2023/08/01 15:14:12;;;;;;;1.30;0.70;;;;;;;;;;6301944;22;20019;-82
2023/08/01 15:16:39;;;;;;;1.67;0.95;;;;;;;;;;6301532;22;20016;-82
2023/08/01 15:19:05;;;;;;;1.23;0.88;;;;;;;;;;6273266;22;20039;-84
2023/08/01 15:21:31;;;;;;;1.83;0.70;;;;;;;;;;6303223;22;20015;-91
2023/08/01 15:23:57;;;;;;;3.13;1.00;;;;;;;;;;6303537;22;20311;-89
2023/08/01 15:26:23;;;;;;;1.40;0.82;;;;;;;;;;6304126;22;20011;-86
2023/08/01 15:28:49;;;;;;;1.85;1.38;;;;;;;;;;6304230;22;20007;-87
2023/08/01 15:31:15;;;;;;;1.65;0.98;;;;;;;;;;6303971;22;20015;-87
2023/08/01 15:33:42;;;;;;;1.75;0.98;;;;;;;;;;6304542;22;20023;-84
2023/08/01 15:36:08;;;;;;;1.20;0.88;;;;;;;;;;6303618;22;20011;-87
2023/08/01 15:38:36;;;;;;;3.30;1.10;;;;;;;;;;6303307;22;20090;-83
2023/08/01 15:41:07;;;;;;;2.70;1.13;;;;;;;;;;6301918;22;20023;-90
2023/08/01 15:43:34;;;;;;;2.83;1.10;;;;;;;;;;6274775;22;20011;-83
2023/08/01 15:46:00;;;;;;;6.57;1.65;;;;;;;;;;6303397;22;20046;-86
2023/08/01 15:48:26;;;;;;;4.72;1.20;;;;;;;;;;6304855;22;20007;-86
2023/08/01 15:50:52;;;;;;;1.08;0.80;;;;;;;;;;6302565;22;20018;-84
2023/08/01 15:53:18;;;;;;;3.42;1.42;;;;;;;;;;6305641;22;20015;-83
2023/08/01 15:55:44;;;;;;;2.45;1.20;;;;;;;;;;6302351;22;20013;-83
2023/08/01 15:58:10;;;;;;;1.58;0.95;;;;;;;;;;6303456;22;20018;-84
2023/08/01 16:00:37;;;;;;;2.85;1.23;;;;;;;;;;6302341;22;20344;-84
2023/08/01 16:03:04;;;;;;;4.03;1.45;;;;;;;;;;6276388;22;20026;-84
2023/08/01 16:05:31;;;;;;;2.35;1.30;;;;;;;;;;6303349;22;20015;-91
2023/08/01 16:07:57;;;;;;;2.03;1.55;;;;;;;;;;6302027;22;20030;-81
2023/08/01 16:10:23;;;;;;;2.80;1.30;;;;;;;;;;6300269;22;20385;-84
2023/08/01 16:12:50;;;;;;;2.05;1.25;;;;;;;;;;6274189;22;20042;-83
2023/08/01 16:15:16;;;;;;;2.50;1.27;;;;;;;;;;6303179;22;20082;-82
2023/08/01 16:17:42;;;;;;;2.58;1.35;;;;;;;;;;6303495;22;20043;-82
2023/08/01 16:20:08;;;;;;;3.28;1.33;;;;;;;;;;6303126;22;20008;-84
2023/08/01 16:22:34;;;;;;;3.05;1.40;;;;;;;;;;6275528;22;20027;-85
2023/08/01 16:25:00;;;;;;;4.43;1.70;;;;;;;;;;6303081;22;20034;-86
2023/08/01 16:27:26;;;;;;;6.57;1.83;;;;;;;;;;6303789;22;20304;-94
2023/08/01 16:29:52;;;;;;;3.47;1.50;;;;;;;;;;6303435;22;20019;-84
2023/08/01 16:32:18;;;;;;;2.90;1.40;;;;;;;;;;6303040;22;20023;-85
2023/08/01 16:34:44;;;;;;;1.75;1.40;;;;;;;;;;6276055;22;20015;-84
2023/08/01 16:37:10;;;;;;;2.47;1.60;;;;;;;;;;6303675;22;20153;-84
2023/08/01 16:39:36;;;;;;;2.80;1.23;;;;;;;;;;6303972;22;20047;-85
2023/08/01 16:42:02;;;;;;;2.50;1.42;;;;;;;;;;6274702;22;20019;-84
2023/08/01 16:44:28;;;;;;;4.80;1.58;;;;;;;;;;6303921;22;20336;-85
2023/08/01 16:46:55;;;;;;;5.40;1.60;;;;;;;;;;6301850;22;20375;-84
2023/08/01 16:49:21;;;;;;;4.03;1.50;;;;;;;;;;6303042;22;20012;-85
2023/08/01 16:51:47;;;;;;;2.83;1.38;;;;;;;;;;6302853;22;20046;-88
2023/08/01 16:54:13;;;;;;;3.03;1.63;;;;;;;;;;6275081;22;20057;-84
2023/08/01 16:56:39;;;;;;;2.50;1.40;;;;;;;;;;6275624;22;20746;-84
2023/08/01 16:59:05;;;;;;;1.58;1.30;;;;;;;;;;6301685;22;20016;-84
2023/08/01 17:01:31;;;;;;;4.82;1.70;;;;;;;;;;6275924;22;20015;-85
2023/08/01 17:03:57;;;;;;;4.43;1.30;;;;;;;;;;6275120;22;20089;-85
2023/08/01 17:06:23;;;;;;;5.45;1.83;;;;;;;;;;6303413;22;20558;-86
2023/08/01 17:08:49;;;;;;;1.65;1.48;;;;;;;;;;6301915;22;20019;-87
2023/08/01 17:11:15;;;;;;;3.75;1.98;;;;;;;;;;6274623;22;20026;-86
2023/08/01 17:13:41;;;;;;;4.40;1.50;;;;;;;;;;6303478;22;20008;-83
2023/08/01 17:16:07;;;;;;;3.40;1.60;;;;;;;;;;6302681;22;20015;-83
2023/08/01 17:18:34;;;;;;;2.50;1.40;;;;;;;;;;6302105;22;20379;-85
2023/08/01 17:21:01;;;;;;;3.25;1.40;;;;;;;;;;6275129;22;20068;-84
2023/08/01 17:23:27;;;;;;;2.00;1.30;;;;;;;;;;6302876;22;20451;-84
2023/08/01 17:25:53;;;;;;;1.88;1.60;;;;;;;;;;6302395;22;20007;-84
2023/08/01 17:28:19;;;;;;;2.50;1.30;;;;;;;;;;6303240;22;20011;-84
2023/08/01 17:30:45;;;;;;;3.75;1.77;;;;;;;;;;6275574;22;20018;-84
2023/08/01 17:33:11;;;;;;;4.57;1.42;;;;;;;;;;6302977;22;20011;-84
2023/08/01 17:35:37;;;;;;;3.35;1.58;;;;;;;;;;6303577;22;20030;-85
2023/08/01 17:38:03;;;;;;;2.53;1.40;;;;;;;;;;6274339;22;20324;-86
2023/08/01 17:40:29;;;;;;;3.55;1.40;;;;;;;;;;6274126;22;20407;-84
2023/08/01 17:42:55;;;;;;;2.65;1.40;;;;;;;;;;6301653;22;20340;-83
2023/08/01 17:45:21;;;;;;;4.15;1.40;;;;;;;;;;6303312;22;20012;-84
2023/08/01 17:47:47;;;;;;;3.15;1.55;;;;;;;;;;6302765;22;20022;-85
2023/08/01 17:50:13;;;;;;;2.85;1.10;;;;;;;;;;6274216;22;20745;-83
2023/08/01 17:52:39;;;;;;;1.83;1.45;;;;;;;;;;6303001;22;20041;-87
2023/08/01 17:55:05;;;;;;;1.83;1.20;;;;;;;;;;6301540;22;20007;-86
2023/08/01 17:57:31;;;;;;;1.98;1.02;;;;;;;;;;6303352;22;20011;-86
2023/08/01 17:59:57;;;;;;;3.60;1.58;;;;;;;;;;6273990;22;20016;-81
2023/08/01 18:02:27;;;;;;;1.77;0.95;;;;;;;;;;6303933;22;20144;-89
2023/08/01 18:04:54;;;;;;;1.42;1.00;;;;;;;;;;6274429;22;20065;-86
2023/08/01 18:07:20;;;;;;;2.55;1.30;;;;;;;;;;6303558;22;20086;-87
2023/08/01 18:09:46;;;;;;;3.53;1.13;;;;;;;;;;6301560;22;20015;-88
2023/08/01 18:12:12;;;;;;;1.98;1.05;;;;;;;;;;6302545;22;20015;-87
2023/08/01 18:14:38;;;;;;;2.97;1.20;;;;;;;;;;6303465;22;20078;-89
2023/08/01 18:17:04;;;;;;;2.90;1.27;;;;;;;;;;6301796;22;20561;-89
2023/08/01 18:19:30;;;;;;;2.13;1.10;;;;;;;;;;6302828;22;20007;-88
2023/08/01 18:21:56;;;;;;;1.55;1.27;;;;;;;;;;6301655;22;20360;-90
2023/08/01 18:24:22;;;;;;;3.88;1.30;;;;;;;;;;6301921;22;20076;-88
2023/08/01 18:26:48;;;;;;;2.13;1.40;;;;;;;;;;6302362;22;20019;-89
2023/08/01 18:29:14;;;;;;;2.30;1.08;;;;;;;;;;6302049;22;20513;-89
2023/08/01 18:31:40;;;;;;;3.55;1.20;;;;;;;;;;6300263;22;20050;-88
2023/08/01 18:34:06;;;;;;;4.18;1.13;;;;;;;;;;6302889;22;20655;-88
2023/08/01 18:36:32;;;;;;;4.50;1.23;;;;;;;;;;6304881;22;20011;-88
2023/08/01 18:38:59;;;;;;;3.35;1.30;;;;;;;;;;6302090;22;20403;-96
2023/08/01 18:41:26;;;;;;;2.47;1.13;;;;;;;;;;6303687;22;20095;-86
2023/08/01 18:43:52;;;;;;;4.03;1.15;;;;;;;;;;6272840;22;20022;-87
2023/08/01 18:46:18;;;;;;;3.88;1.63;;;;;;;;;;6302096;22;20015;-86
2023/08/01 18:48:46;;;;;;;1.90;1.00;;;;;;;;;;6302334;22;20092;-87
2023/08/01 18:51:16;;;;;;;1.73;1.20;;;;;;;;;;6301903;22;20332;-87
2023/08/01 18:53:42;;;;;;;4.70;1.70;;;;;;;;;;6302155;22;20439;-85
2023/08/01 18:56:12;;;;;;;2.75;1.20;;;;;;;;;;6302268;22;20012;-87
2023/08/01 18:58:38;;;;;;;4.22;1.42;;;;;;;;;;6301997;22;20015;-86
2023/08/01 19:01:12;;;;;;;2.95;1.40;;;;;;;;;;6301062;22;20080;-85
2023/08/01 19:03:38;;;;;;;2.80;1.42;;;;;;;;;;6275288;22;20027;-86
2023/08/01 19:06:04;;;;;;;2.40;1.23;;;;;;;;;;6301724;22;20019;-86
2023/08/01 19:08:30;;;;;;;2.20;1.27;;;;;;;;;;6273588;22;20065;-85
2023/08/01 19:10:56;;;;;;;3.53;1.23;;;;;;;;;;6301317;22;20007;-85
2023/08/01 19:13:22;;;;;;;2.95;1.45;;;;;;;;;;6249817;22;20015;-84
2023/08/01 19:15:48;;;;;;;2.85;1.13;;;;;;;;;;6273219;22;20007;-86
2023/08/01 19:18:14;;;;;;;1.13;1.02;;;;;;;;;;6274391;22;20027;-88
2023/08/01 19:20:40;;;;;;;3.60;1.25;;;;;;;;;;6302464;22;20011;-87
2023/08/01 19:23:06;;;;;;;1.83;1.65;;;;;;;;;;6301702;22;20370;-87
2023/08/01 19:25:32;;;;;;;3.75;1.55;;;;;;;;;;6302972;22;20064;-85
2023/08/01 19:27:58;;;;;;;2.75;1.20;;;;;;;;;;6272634;22;20023;-84
2023/08/01 19:30:29;;;;;;;2.25;1.30;;;;;;;;;;6274654;22;20031;-85
2023/08/01 19:32:55;;;;;;;5.05;2.83;;;;;;;;;;6274207;22;20020;-85
2023/08/01 19:35:21;;;;;;;2.70;1.20;;;;;;;;;;6275147;22;20389;-85
2023/08/01 19:37:47;;;;;;;3.97;1.48;;;;;;;;;;6301257;22;20007;-85
2023/08/01 19:40:14;;;;;;;1.38;1.27;;;;;;;;;;6274050;22;20019;-85
2023/08/01 19:42:40;;;;;;;2.38;1.00;;;;;;;;;;6274381;22;20061;-84
2023/08/01 19:45:07;;;;;;;2.78;1.67;;;;;;;;;;6274032;22;20039;-95
2023/08/01 19:47:33;;;;;;;2.13;1.20;;;;;;;;;;6252495;22;20023;-93
2023/08/01 19:49:59;;;;;;;4.43;1.65;;;;;;;;;;6276632;22;20106;-96
2023/08/01 19:52:25;;;;;;;2.05;1.20;;;;;;;;;;6302918;22;20443;-92
2023/08/01 19:54:51;;;;;;;3.90;1.13;;;;;;;;;;6302727;22;20011;-91
2023/08/01 19:57:17;;;;;;;4.15;1.48;;;;;;;;;;6302902;22;20013;-92
2023/08/01 19:59:43;;;;;;;1.70;1.42;;;;;;;;;;6302449;22;20086;-91
2023/08/01 20:02:09;;;;;;;2.65;1.40;;;;;;;;;;6274663;22;20026;-93
2023/08/01 20:04:35;;;;;;;2.40;1.27;;;;;;;;;;6304731;22;20011;-92
2023/08/01 20:07:03;;;;;;;2.92;1.45;;;;;;;;;;6301248;22;20431;-91
2023/08/01 20:09:29;;;;;;;3.95;1.75;;;;;;;;;;6298758;22;20440;-86
2023/08/01 20:11:55;;;;;;;2.72;1.77;;;;;;;;;;6302283;22;20331;-86
2023/08/01 20:14:21;;;;;;;1.40;1.30;;;;;;;;;;6303647;22;20018;-86
2023/08/01 20:16:47;;;;;;;5.07;1.35;;;;;;;;;;6274925;22;20019;-86
2023/08/01 20:19:13;;;;;;;3.80;1.60;;;;;;;;;;6304022;22;20007;-86
2023/08/01 20:21:39;;;;;;;5.65;1.67;;;;;;;;;;6303382;22;20019;-85
2023/08/01 20:24:05;;;;;;;5.22;2.20;;;;;;;;;;6274869;22;20015;-86
2023/08/01 20:26:31;;;;;;;2.72;1.50;;;;;;;;;;6302339;22;20008;-87
2023/08/01 20:28:57;;;;;;;6.05;1.70;;;;;;;;;;6301308;22;20554;-86
2023/08/01 20:31:24;;;;;;;5.38;1.65;;;;;;;;;;6303377;22;20313;-86
2023/08/01 20:33:50;;;;;;;5.20;1.52;;;;;;;;;;6300673;22;20041;-86
2023/08/01 20:36:16;;;;;;;1.90;1.23;;;;;;;;;;6301592;22;20078;-86
2023/08/01 20:38:42;;;;;;;2.00;1.50;;;;;;;;;;6302034;22;20449;-85
2023/08/01 20:41:12;;;;;;;4.53;1.50;;;;;;;;;;6301890;22;20034;-86
2023/08/01 20:43:38;;;;;;;4.85;1.80;;;;;;;;;;6276662;22;20022;-86
2023/08/01 20:46:04;;;;;;;5.40;2.03;;;;;;;;;;6302839;22;20015;-86
2023/08/01 20:48:30;;;;;;;3.05;1.42;;;;;;;;;;6303947;22;20007;-85
2023/08/01 20:50:56;;;;;;;1.90;1.40;;;;;;;;;;6302750;22;20100;-86
2023/08/01 20:53:22;;;;;;;5.60;3.55;;;;;;;;;;6303953;22;20011;-87
2023/08/01 20:55:48;;;;;;;5.85;2.70;;;;;;;;;;6303482;22;20360;-84
2023/08/01 20:58:15;;;;;;;3.47;1.73;;;;;;;;;;6303283;22;20022;-86
2023/08/01 21:00:42;;;;;;;5.70;2.13;;;;;;;;;;6303804;22;20399;-85
2023/08/01 21:03:08;;;;;;;4.38;1.90;;;;;;;;;;6303212;22;20030;-85
2023/08/01 21:05:37;;;;;;;3.67;1.95;;;;;;;;;;6303538;22;20068;-85
2023/08/01 21:08:03;;;;;;;5.20;2.25;;;;;;;;;;6302106;22;20011;-85
2023/08/01 21:10:30;;;;;;;4.32;2.00;;;;;;;;;;6303620;22;20018;-85
2023/08/01 21:12:56;;;;;;;3.75;1.67;;;;;;;;;;6301070;22;20026;-85
2023/08/01 21:15:26;;;;;;;3.25;2.30;;;;;;;;;;6301102;22;20061;-85
2023/08/01 21:17:53;;;;;;;2.20;1.75;;;;;;;;;;6302017;22;20007;-86
2023/08/01 21:20:19;;;;;;;2.65;1.95;;;;;;;;;;6275071;22;20016;-86
2023/08/01 21:22:45;;;;;;;5.43;2.38;;;;;;;;;;6302868;22;20444;-87
2023/08/01 21:25:11;;;;;;;5.45;1.98;;;;;;;;;;6302635;22;20022;-88
2023/08/01 21:27:37;;;;;;;3.83;1.83;;;;;;;;;;6301771;22;20456;-86
2023/08/01 21:30:03;;;;;;;3.88;1.90;;;;;;;;;;6303034;22;20019;-87
2023/08/01 21:32:29;;;;;;;7.97;2.03;;;;;;;;;;6275845;22;20321;-87
2023/08/01 21:34:55;;;;;;;5.60;1.90;;;;;;;;;;6303144;22;20037;-86
2023/08/01 21:37:21;;;;;;;2.33;2.05;;;;;;;;;;6303785;22;20015;-86
2023/08/01 21:39:48;;;;;;;4.55;1.83;;;;;;;;;;6303098;22;20019;-87
2023/08/01 21:42:15;;;;;;;3.45;2.20;;;;;;;;;;6276170;22;20499;-87
2023/08/01 21:44:41;;;;;;;3.30;1.95;;;;;;;;;;6303518;22;20278;-88
2023/08/01 21:47:08;;;;;;;2.83;1.88;;;;;;;;;;6274436;22;20013;-87
2023/08/01 21:49:34;;;;;;;4.05;1.92;;;;;;;;;;6303262;22;20042;-87
2023/08/01 21:52:00;;;;;;;3.97;2.33;;;;;;;;;;6275097;22;20022;-86
2023/08/01 21:54:27;;;;;;;3.78;1.98;;;;;;;;;;6304039;22;20374;-87
2023/08/01 21:56:54;;;;;;;5.20;2.20;;;;;;;;;;6302662;22;20012;-87
2023/08/01 21:59:20;;;;;;;3.22;1.63;;;;;;;;;;6303985;22;20018;-87
2023/08/01 22:01:46;;;;;;;4.60;1.98;;;;;;;;;;6302486;22;20339;-87
2023/08/01 22:04:12;;;;;;;4.57;1.67;;;;;;;;;;6275716;22;20022;-88
2023/08/01 22:06:38;;;;;;;4.60;1.85;;;;;;;;;;6275969;22;20016;-87
2023/08/01 22:09:05;;;;;;;3.38;1.75;;;;;;;;;;6302775;22;20019;-87
2023/08/01 22:11:31;;;;;;;3.28;1.73;;;;;;;;;;6303691;22;20021;-87
2023/08/01 22:13:57;;;;;;;3.88;1.90;;;;;;;;;;6301906;22;20018;-87
2023/08/01 22:16:23;;;;;;;2.50;1.77;;;;;;;;;;6273741;22;20424;-87
2023/08/01 22:18:49;;;;;;;3.85;2.00;;;;;;;;;;6302546;22;20007;-87
2023/08/01 22:21:15;;;;;;;4.55;1.90;;;;;;;;;;6303471;22;20011;-87
2023/08/01 22:23:41;;;;;;;2.33;2.10;;;;;;;;;;6275770;22;20015;-88
2023/08/01 22:26:07;;;;;;;4.55;1.75;;;;;;;;;;6274813;22;20011;-87
2023/08/01 22:28:33;;;;;;;3.22;1.70;;;;;;;;;;6303620;22;20130;-88
2023/08/01 22:31:02;;;;;;;5.47;2.00;;;;;;;;;;6301858;22;20620;-87
2023/08/01 22:33:29;;;;;;;1.92;1.50;;;;;;;;;;6303382;22;20047;-87
2023/08/01 22:35:55;;;;;;;5.43;1.95;;;;;;;;;;6274511;22;20339;-87
2023/08/01 22:38:21;;;;;;;3.20;1.50;;;;;;;;;;6303039;22;20382;-87
2023/08/01 22:40:47;;;;;;;3.33;1.52;;;;;;;;;;6302678;22;20075;-87
2023/08/01 22:43:13;;;;;;;2.28;1.20;;;;;;;;;;6275741;22;20023;-88
2023/08/01 22:45:42;;;;;;;1.98;1.00;;;;;;;;;;6275412;22;20382;-88
2023/08/01 22:48:08;;;;;;;2.83;1.23;;;;;;;;;;6274840;22;20314;-87
2023/08/01 22:50:34;;;;;;;2.13;1.42;;;;;;;;;;6303668;22;20008;-88